Coalinga, California
Current Conditions -  °F | °C
As of 4:56 PM on Wednesday 26 Nov 2014 (Local Time) from KNLC Reporting Station
Haze Haze  
Wind Chill: 63°   Ceiling: Unl
Heat Index: 63°   Visibility: 5mi
Dew Point: 46°   Wind: 5mph
Humidity: 54%   Direction: 80°E
Pressure: 30.23"   Gusts: NA
Location:  36.14°N, 120.36°W
Report Text: KNLC 270056Z 08004KT 5SM HZ FEW170 FEW230 17/08 A3023 RMK AO2 SLP237 RH/53 T01720078 $
Loading
Personal Weather Stations






























Interactive Weather Map New forecast layout! Learn more

10-Day Weather Forecast

Advertisements
Track Severe Weather on mobile